Time;durP1;ratioP1;P1;durP2;ratioP2;P2;SDS_P1;SDS_P2;PMS_P1;PMS_P2;Temp;Humidity;BMP_temperature;BMP_pressure;BME280_temperature;BME280_humidity;BME280_pressure;Samples;Min_cycle;Max_cycle;Signal;HPM_P1;HPM_P2
2021/11/05 00:00:32;;;;;;;;;2.00;2.00;;;;;22.93;38.93;101848.13;4971178;28;45403;-63
2021/11/05 00:02:58;;;;;;;;;0.00;0.00;;;;;22.91;39.21;101852.78;4971372;28;45513;-63
2021/11/05 00:05:26;;;;;;;;;2.50;2.00;;;;;22.94;38.74;101858.59;4971210;28;46625;-63
2021/11/05 00:07:51;;;;;;;;;2.50;1.50;;;;;22.92;38.64;101857.09;4973394;28;45398;-63
2021/11/05 00:10:17;;;;;;;;;0.50;0.50;;;;;22.91;38.78;101858.91;4971440;28;45584;-63
2021/11/05 00:12:43;;;;;;;;;1.00;1.00;;;;;22.91;38.61;101855.44;4971258;28;45505;-63
2021/11/05 00:15:09;;;;;;;;;0.75;0.75;;;;;22.91;39.34;101860.75;4970791;28;45334;-63
2021/11/05 00:17:34;;;;;;;;;0.50;0.00;;;;;22.91;39.33;101866.88;4971219;28;45382;-63
2021/11/05 00:20:00;;;;;;;;;2.50;1.00;;;;;22.90;39.27;101877.66;4972753;28;45359;-64
2021/11/05 00:22:25;;;;;;;;;1.00;1.00;;;;;22.88;38.74;101875.16;4971648;28;45375;-63
2021/11/05 00:24:51;;;;;;;;;1.00;1.00;;;;;22.85;38.98;101868.34;4970976;28;45348;-63
2021/11/05 00:27:16;;;;;;;;;1.00;1.00;;;;;22.89;38.90;101868.88;4970936;28;45355;-64
2021/11/05 00:29:42;;;;;;;;;1.00;1.00;;;;;22.87;39.09;101868.22;4970864;28;45451;-63
2021/11/05 00:32:08;;;;;;;;;1.00;1.00;;;;;22.89;39.19;101873.34;4972122;28;45419;-63
2021/11/05 00:34:34;;;;;;;;;0.00;0.00;;;;;22.88;38.79;101879.63;4970648;28;45405;-63
2021/11/05 00:36:59;;;;;;;;;2.00;2.00;;;;;22.87;38.49;101878.81;4970590;28;45440;-64
2021/11/05 00:39:24;;;;;;;;;1.25;1.00;;;;;22.85;38.75;101878.97;4970936;28;45410;-63
2021/11/05 00:41:50;;;;;;;;;1.00;1.00;;;;;22.88;38.61;101874.31;4971052;28;45528;-63
2021/11/05 00:44:15;;;;;;;;;1.50;1.50;;;;;22.89;38.92;101874.19;4970565;28;47207;-64
2021/11/05 00:46:40;;;;;;;;;0.00;0.00;;;;;22.88;38.50;101876.97;4972889;28;45297;-63
2021/11/05 00:49:06;;;;;;;;;0.50;0.50;;;;;22.90;38.93;101885.63;4970798;28;45455;-64
2021/11/05 00:51:31;;;;;;;;;0.25;0.25;;;;;22.86;38.91;101871.84;4970562;28;45403;-63
2021/11/05 00:53:56;;;;;;;;;0.00;0.00;;;;;22.88;38.89;101883.13;4970607;28;45404;-63
2021/11/05 00:56:22;;;;;;;;;2.50;2.50;;;;;22.71;38.72;101855.72;4972357;28;45264;-63
2021/11/05 00:58:47;;;;;;;;;3.00;0.25;;;;;22.85;38.35;101881.63;4977190;28;45549;-63
2021/11/05 01:01:13;;;;;;;;;1.00;1.00;;;;;22.87;39.03;101880.63;4973722;28;45449;-63
2021/11/05 01:03:39;;;;;;;;;0.25;0.00;;;;;22.69;38.97;101863.78;4973437;28;47356;-63
2021/11/05 01:06:04;;;;;;;;;0.00;0.00;;;;;22.84;38.63;101890.59;4973589;28;45558;-63
2021/11/05 01:08:29;;;;;;;;;2.50;0.00;;;;;22.86;38.84;101895.72;4973869;28;45196;-64
2021/11/05 01:10:55;;;;;;;;;1.00;1.00;;;;;22.84;38.93;101898.56;4971622;28;45281;-63
2021/11/05 01:13:21;;;;;;;;;1.00;0.25;;;;;22.80;38.82;101886.56;4973070;28;45454;-63
2021/11/05 01:15:46;;;;;;;;;2.00;1.00;;;;;22.79;38.59;101886.75;4973528;28;45454;-63
2021/11/05 01:18:12;;;;;;;;;0.00;0.00;;;;;22.80;38.40;101897.19;4973424;28;45429;-63
2021/11/05 01:20:39;;;;;;;;;2.00;1.00;;;;;22.76;38.51;101893.22;4973479;28;45427;-63
2021/11/05 01:23:04;;;;;;;;;1.75;0.75;;;;;22.79;38.88;101898.19;4974911;28;46873;-63
2021/11/05 01:25:30;;;;;;;;;0.00;0.00;;;;;22.81;38.45;101904.16;4974098;28;45394;-63
2021/11/05 01:27:55;;;;;;;;;0.00;0.00;;;;;22.79;38.45;101905.31;4973238;28;45587;-63
2021/11/05 01:30:21;;;;;;;;;0.00;0.00;;;;;22.82;38.54;101910.31;4973359;28;45468;-63
2021/11/05 01:32:47;;;;;;;;;1.00;1.00;;;;;22.77;38.80;101912.63;4973302;28;45964;-63
2021/11/05 01:35:13;;;;;;;;;0.00;0.00;;;;;22.81;38.31;101922.75;4973772;28;45677;-63
2021/11/05 01:37:38;;;;;;;;;0.50;0.50;;;;;22.73;38.74;101912.09;4975171;28;45371;-63
2021/11/05 01:40:06;;;;;;;;;0.00;0.00;;;;;22.77;38.63;101921.38;4973157;28;45372;-63
2021/11/05 01:42:34;;;;;;;;;1.00;0.25;;;;;22.80;38.75;101925.53;4972678;28;46453;-63
2021/11/05 01:44:59;;;;;;;;;1.75;1.75;;;;;22.79;38.31;101927.38;4973091;28;45265;-64
2021/11/05 01:47:24;;;;;;;;;1.00;1.00;;;;;22.78;38.93;101933.66;4973240;28;45305;-63
2021/11/05 01:49:50;;;;;;;;;1.00;1.00;;;;;22.77;38.44;101929.34;4975243;28;45386;-63
2021/11/05 01:52:15;;;;;;;;;2.00;0.75;;;;;22.78;38.28;101938.97;4971529;28;46465;-63
2021/11/05 01:54:41;;;;;;;;;1.50;1.50;;;;;22.72;38.45;101934.28;4973051;28;45454;-63
2021/11/05 01:57:07;;;;;;;;;1.00;1.00;;;;;22.77;38.29;101937.31;4971888;28;45423;-63
2021/11/05 01:59:35;;;;;;;;;1.50;1.00;;;;;22.76;38.38;101943.63;4973309;28;45675;-63
2021/11/05 02:02:02;;;;;;;;;0.25;0.25;;;;;22.76;38.33;101948.91;4974380;28;46568;-63
2021/11/05 02:04:28;;;;;;;;;1.00;1.00;;;;;22.77;38.69;101949.75;4971967;28;45359;-63
2021/11/05 02:06:55;;;;;;;;;1.50;1.50;;;;;22.77;38.33;101952.41;4972891;28;45346;-63
2021/11/05 02:09:24;;;;;;;;;0.75;0.75;;;;;22.77;38.21;101963.03;4972579;28;45379;-63
2021/11/05 02:11:52;;;;;;;;;1.75;1.75;;;;;22.77;38.74;101963.84;4972400;28;46176;-63
2021/11/05 02:14:20;;;;;;;;;0.25;0.25;;;;;22.77;38.78;101969.13;4972705;28;45254;-63
2021/11/05 02:16:47;;;;;;;;;2.00;1.00;;;;;22.78;38.76;101964.66;4974945;28;45350;-63
2021/11/05 02:19:18;;;;;;;;;0.75;0.75;;;;;22.74;38.07;101954.38;4972485;28;45493;-63
2021/11/05 02:21:46;;;;;;;;;1.00;1.00;;;;;22.73;38.67;101959.84;4972315;28;46228;-63
2021/11/05 02:24:13;;;;;;;;;0.00;0.00;;;;;22.78;38.03;101956.72;4972604;28;45474;-63
2021/11/05 02:26:40;;;;;;;;;0.75;0.75;;;;;22.78;38.35;101956.72;4972264;28;45248;-63
2021/11/05 02:29:06;;;;;;;;;1.00;1.00;;;;;22.73;37.99;101960.69;4973558;28;45252;-63
2021/11/05 02:31:32;;;;;;;;;0.25;0.25;;;;;22.77;38.14;101966.47;4972133;28;45386;-63
2021/11/05 02:33:58;;;;;;;;;0.75;0.00;;;;;22.76;38.22;101962.19;4972569;28;45435;-63
2021/11/05 02:36:24;;;;;;;;;0.00;0.00;;;;;22.76;38.81;101959.53;4972455;28;45467;-63
2021/11/05 02:38:49;;;;;;;;;1.00;1.00;;;;;22.74;38.26;101964.97;4972445;28;45450;-63
2021/11/05 02:41:15;;;;;;;;;0.00;0.00;;;;;22.77;37.94;101971.78;4972223;28;45462;-63
2021/11/05 02:43:40;;;;;;;;;0.00;0.00;;;;;22.74;38.12;101972.13;4974486;28;45564;-63
2021/11/05 02:46:06;;;;;;;;;1.00;1.00;;;;;22.73;38.26;101978.41;4972557;28;45259;-63
2021/11/05 02:48:33;;;;;;;;;0.25;0.25;;;;;22.74;38.44;101985.41;4972321;28;45466;-63
2021/11/05 02:50:59;;;;;;;;;1.50;0.00;;;;;22.69;38.55;101971.75;4972099;28;46960;-63
2021/11/05 02:53:24;;;;;;;;;0.25;0.25;;;;;22.71;38.16;101991.00;4972174;28;45484;-63
2021/11/05 02:55:50;;;;;;;;;1.00;1.00;;;;;22.72;38.14;101990.84;4974467;28;45327;-63
2021/11/05 02:58:16;;;;;;;;;0.50;0.00;;;;;22.73;38.43;101987.22;4972327;28;45585;-63
2021/11/05 03:00:45;;;;;;;;;0.75;0.50;;;;;22.72;38.47;101996.16;4972198;28;46210;-63
2021/11/05 03:03:13;;;;;;;;;1.00;1.00;;;;;22.69;38.26;101995.63;4971985;28;45418;-63
2021/11/05 03:05:39;;;;;;;;;0.00;0.00;;;;;22.69;38.83;101992.97;4972339;28;45220;-63
2021/11/05 03:08:05;;;;;;;;;1.00;1.00;;;;;22.71;38.05;101999.81;4973227;28;45430;-63
2021/11/05 03:10:34;;;;;;;;;1.00;1.00;;;;;22.70;38.17;102008.75;4971560;28;45476;-63
2021/11/05 03:13:01;;;;;;;;;1.50;1.00;;;;;22.67;38.76;102003.72;4971976;28;45516;-63
2021/11/05 03:15:26;;;;;;;;;1.00;1.00;;;;;22.70;38.81;101997.28;4972258;28;45452;-63
2021/11/05 03:17:53;;;;;;;;;0.00;0.00;;;;;22.58;38.42;101986.09;4972152;28;45590;-63
2021/11/05 03:20:20;;;;;;;;;1.00;0.00;;;;;22.71;38.17;102007.75;4971032;28;46506;-63
2021/11/05 03:22:47;;;;;;;;;1.00;1.00;;;;;22.71;38.01;102012.22;4973579;28;45414;-63
2021/11/05 03:25:13;;;;;;;;;1.00;1.00;;;;;22.70;38.04;102011.41;4971901;28;45478;-63
2021/11/05 03:27:39;;;;;;;;;1.00;1.00;;;;;22.69;38.25;102020.28;4971852;28;45394;-63
2021/11/05 03:30:07;;;;;;;;;0.00;0.00;;;;;22.70;38.14;102021.16;4971693;28;46622;-64
2021/11/05 03:32:34;;;;;;;;;1.00;1.00;;;;;22.69;38.36;102015.00;4971916;28;45421;-63
2021/11/05 03:35:00;;;;;;;;;2.00;0.00;;;;;22.68;38.44;102023.13;4973848;28;45391;-62
2021/11/05 03:37:25;;;;;;;;;0.00;0.00;;;;;22.70;38.12;102029.13;4971890;28;45151;-63
2021/11/05 03:39:50;;;;;;;;;0.00;0.00;;;;;22.69;37.91;102024.78;4971716;28;46827;-63
2021/11/05 03:42:16;;;;;;;;;1.00;1.00;;;;;22.68;38.02;102031.06;4971711;28;45577;-63
2021/11/05 03:44:41;;;;;;;;;1.00;1.00;;;;;22.66;37.87;102025.09;4971941;28;45268;-63
2021/11/05 03:47:06;;;;;;;;;1.25;0.00;;;;;22.70;38.45;102031.78;4972647;28;45612;-63
2021/11/05 03:49:32;;;;;;;;;0.50;0.50;;;;;22.69;37.95;102038.06;4971282;28;46613;-63
2021/11/05 03:51:58;;;;;;;;;0.00;0.00;;;;;22.61;37.85;102020.25;4971085;28;45352;-64
2021/11/05 03:54:24;;;;;;;;;0.50;0.50;;;;;22.71;38.39;102046.72;4971687;28;45327;-63
2021/11/05 03:56:49;;;;;;;;;0.00;0.00;;;;;22.70;37.98;102047.69;4971761;28;45355;-63
2021/11/05 03:59:14;;;;;;;;;0.00;0.00;;;;;22.63;37.88;102027.09;4971416;28;45541;-63
2021/11/05 04:01:41;;;;;;;;;0.00;0.00;;;;;22.70;38.21;102043.22;4973549;28;45287;-63
2021/11/05 04:04:06;;;;;;;;;0.25;0.25;;;;;22.67;37.74;102043.50;4971459;28;45560;-63
2021/11/05 04:06:32;;;;;;;;;0.50;0.50;;;;;22.72;37.89;102051.03;4971043;28;45361;-63
2021/11/05 04:08:58;;;;;;;;;0.00;0.00;;;;;22.70;38.32;102048.53;4971389;28;45243;-63
2021/11/05 04:11:23;;;;;;;;;0.25;0.25;;;;;22.72;37.92;102051.03;4970917;28;45280;-63
2021/11/05 04:13:49;;;;;;;;;0.00;0.00;;;;;22.71;37.70;102060.81;4972782;28;45493;-63
2021/11/05 04:16:14;;;;;;;;;1.00;1.00;;;;;22.70;38.25;102061.81;4971405;28;45450;-63
2021/11/05 04:18:40;;;;;;;;;0.00;0.00;;;;;22.70;38.39;102068.91;4970984;28;46717;-63
2021/11/05 04:21:05;;;;;;;;;0.25;0.25;;;;;22.64;38.31;102065.03;4970586;28;45345;-63
2021/11/05 04:23:31;;;;;;;;;1.00;0.00;;;;;22.69;38.33;102076.00;4969971;28;45355;-63
2021/11/05 04:25:56;;;;;;;;;1.00;0.00;;;;;22.69;38.45;102091.13;4973412;28;45350;-63
2021/11/05 04:28:22;;;;;;;;;0.00;0.00;;;;;22.67;38.10;102083.28;4969647;28;46107;-63
2021/11/05 04:30:48;;;;;;;;;0.00;0.00;;;;;22.68;37.88;102082.31;4971053;28;45749;-63
2021/11/05 04:33:15;;;;;;;;;0.00;0.00;;;;;22.68;37.68;102087.63;4986018;28;45685;-63
2021/11/05 04:35:41;;;;;;;;;1.00;1.00;;;;;22.67;38.22;102087.75;4974146;28;45344;-63
2021/11/05 04:38:06;;;;;;;;;0.25;0.25;;;;;22.61;38.02;102089.22;4974981;28;45507;-63
2021/11/05 04:40:32;;;;;;;;;2.00;1.00;;;;;22.67;38.07;102096.56;4974851;28;45549;-63
2021/11/05 04:42:58;;;;;;;;;0.25;0.00;;;;;22.67;37.96;102108.97;4974044;28;45446;-63
2021/11/05 04:45:23;;;;;;;;;0.00;0.00;;;;;22.66;37.86;102110.81;4973858;28;45632;-63
2021/11/05 04:47:49;;;;;;;;;2.00;0.75;;;;;22.65;37.82;102114.44;4984157;28;46248;-63
2021/11/05 04:50:15;;;;;;;;;1.00;0.00;;;;;22.66;38.15;102107.34;4980717;28;45439;-64
2021/11/05 04:52:47;;;;;;;;;0.00;0.00;;;;;22.65;38.26;102108.31;4976022;28;45267;-63
2021/11/05 04:55:14;;;;;;;;;1.00;1.00;;;;;22.66;38.24;102116.13;4973836;28;45510;-63
2021/11/05 04:57:39;;;;;;;;;0.00;0.00;;;;;22.67;38.26;102119.59;4973321;28;48060;-63
2021/11/05 05:00:07;;;;;;;;;0.25;0.25;;;;;22.66;37.74;102120.59;4973649;28;45438;-63
2021/11/05 05:02:33;;;;;;;;;0.25;0.00;;;;;22.65;38.12;102122.41;4973874;28;45257;-63
2021/11/05 05:04:59;;;;;;;;;2.00;0.75;;;;;22.61;38.06;102121.88;4975743;28;45385;-64
2021/11/05 05:07:24;;;;;;;;;0.00;0.00;;;;;22.66;37.92;102131.22;4974095;28;45376;-63
2021/11/05 05:09:49;;;;;;;;;0.50;0.50;;;;;22.61;37.91;102127.19;4973475;28;45550;-63
2021/11/05 05:12:15;;;;;;;;;0.75;0.00;;;;;22.64;37.68;102139.31;4973712;28;45378;-63
2021/11/05 05:14:40;;;;;;;;;0.00;0.00;;;;;22.64;37.95;102144.59;4973819;28;45553;-63
2021/11/05 05:17:05;;;;;;;;;0.00;0.00;;;;;22.58;37.77;102138.13;4974775;28;46069;-64
2021/11/05 05:19:31;;;;;;;;;1.00;1.00;;;;;22.66;38.17;102147.13;4973844;28;46565;-63
2021/11/05 05:21:56;;;;;;;;;1.00;0.50;;;;;22.64;38.18;102149.91;4973475;28;45605;-63
2021/11/05 05:24:22;;;;;;;;;1.00;1.00;;;;;22.65;37.59;102154.25;4973446;28;45394;-63
2021/11/05 05:26:47;;;;;;;;;1.00;1.00;;;;;22.60;37.65;102143.25;4973394;28;45616;-63
2021/11/05 05:29:13;;;;;;;;;0.00;0.00;;;;;22.65;38.01;102151.59;4973772;28;45347;-63
2021/11/05 05:31:39;;;;;;;;;0.00;0.00;;;;;22.67;37.88;102159.38;4975334;28;45317;-63
2021/11/05 05:34:04;;;;;;;;;0.00;0.00;;;;;22.62;37.44;102159.84;4973053;28;45347;-63
2021/11/05 05:36:29;;;;;;;;;0.00;0.00;;;;;22.66;37.50;102166.53;4973063;28;45973;-63
2021/11/05 05:38:55;;;;;;;;;0.00;0.00;;;;;22.66;37.66;102165.69;4973355;28;45335;-63
2021/11/05 05:41:20;;;;;;;;;0.00;0.00;;;;;22.67;37.80;102165.53;4973164;28;45446;-63
2021/11/05 05:43:45;;;;;;;;;0.00;0.00;;;;;22.63;38.09;102162.38;4974757;28;45474;-63
2021/11/05 05:46:11;;;;;;;;;1.25;1.00;;;;;22.66;38.17;102179.81;4971619;28;46604;-63
2021/11/05 05:48:36;;;;;;;;;0.00;0.00;;;;;22.66;37.42;102185.09;4985730;27;45336;-64
2021/11/05 05:51:03;;;;;;;;;0.50;0.00;;;;;22.64;37.58;102181.75;4973304;28;45166;-63
2021/11/05 05:53:28;;;;;;;;;1.50;0.00;;;;;22.63;37.50;102188.06;4957925;28;45472;-63
2021/11/05 05:55:54;;;;;;;;;2.00;1.00;;;;;22.65;37.65;102195.84;4974936;28;45375;-63
2021/11/05 05:58:20;;;;;;;;;0.25;0.25;;;;;22.63;37.61;102193.34;4972813;28;45294;-63
2021/11/05 06:00:46;;;;;;;;;1.75;1.00;;;;;22.56;38.16;102187.81;4972834;28;45489;-63
2021/11/05 06:03:12;;;;;;;;;0.75;0.75;;;;;22.62;37.49;102197.00;4972486;28;45481;-63
2021/11/05 06:05:39;;;;;;;;;0.00;0.00;;;;;22.63;38.12;102207.47;4972685;28;46973;-63
2021/11/05 06:08:05;;;;;;;;;0.00;0.00;;;;;22.61;37.46;102205.94;4974340;28;45435;-63
2021/11/05 06:10:31;;;;;;;;;0.00;0.00;;;;;22.62;37.90;102216.41;4973561;28;45466;-63
2021/11/05 06:12:57;;;;;;;;;0.25;0.25;;;;;22.56;37.52;102209.03;4971621;28;45344;-63
2021/11/05 06:15:23;;;;;;;;;1.00;1.00;;;;;22.58;37.60;102215.03;4972409;28;47215;-64
2021/11/05 06:17:48;;;;;;;;;1.75;1.00;;;;;22.60;38.05;102220.19;4972363;28;45532;-63
2021/11/05 06:20:14;;;;;;;;;0.00;0.00;;;;;22.53;38.05;102206.69;4973062;28;45449;-63
2021/11/05 06:22:39;;;;;;;;;1.50;0.50;;;;;22.56;38.02;102213.53;4972598;28;45375;-63
2021/11/05 06:25:05;;;;;;;;;0.25;0.25;;;;;22.61;37.67;102230.63;4971133;28;47181;-63
2021/11/05 06:27:30;;;;;;;;;1.00;1.00;;;;;22.59;37.76;102234.41;4972587;28;45447;-63
2021/11/05 06:29:56;;;;;;;;;0.00;0.00;;;;;22.57;37.98;102231.94;4972970;28;45400;-63
2021/11/05 06:32:22;;;;;;;;;0.00;0.00;;;;;22.59;37.68;102237.91;4972533;28;45329;-63
2021/11/05 06:34:48;;;;;;;;;0.00;0.00;;;;;22.53;37.51;102222.63;4974709;28;46009;-63
2021/11/05 06:37:13;;;;;;;;;0.00;0.00;;;;;22.59;37.46;102237.91;4972386;28;45328;-63
2021/11/05 06:39:39;;;;;;;;;1.00;1.00;;;;;22.60;37.82;102244.06;4972461;28;45404;-63
2021/11/05 06:42:05;;;;;;;;;0.00;0.00;;;;;22.59;37.85;102245.03;4972495;28;45403;-63
2021/11/05 06:44:31;;;;;;;;;0.00;0.00;;;;;22.56;37.90;102246.16;4972598;28;46179;-62
2021/11/05 06:46:58;;;;;;;;;0.00;0.00;;;;;22.54;37.59;102250.78;4973137;28;45367;-62
2021/11/05 06:49:23;;;;;;;;;0.00;0.00;;;;;22.59;37.77;102255.63;4972511;28;45408;-62
2021/11/05 06:51:53;;;;;;;;;0.00;0.00;;;;;22.54;37.81;102252.59;4972308;28;45466;-62
2021/11/05 06:54:18;;;;;;;;;1.00;0.00;;;;;22.60;37.32;102265.28;4971185;28;46308;-63
2021/11/05 06:56:44;;;;;;;;;1.00;1.00;;;;;22.59;37.54;102264.44;4972455;28;45229;-62
2021/11/05 06:59:09;;;;;;;;;1.25;1.25;;;;;22.60;37.78;102267.94;4973164;28;47835;-63
2021/11/05 07:01:34;;;;;;;;;2.00;0.25;;;;;22.60;37.48;102275.88;4973418;28;45290;-63
2021/11/05 07:04:00;;;;;;;;;3.00;0.00;;;;;22.57;37.63;102278.84;4970580;28;46914;-63
2021/11/05 07:06:25;;;;;;;;;0.00;0.00;;;;;22.56;37.24;102278.00;4972105;28;45237;-62
2021/11/05 07:08:51;;;;;;;;;0.00;0.00;;;;;22.60;37.77;102292.66;4972252;28;45182;-62
2021/11/05 07:11:16;;;;;;;;;0.25;0.25;;;;;22.61;37.75;102299.59;4972108;28;45207;-63
2021/11/05 07:13:41;;;;;;;;;1.75;0.00;;;;;22.44;37.74;102273.88;4974088;28;45216;-62
2021/11/05 07:16:07;;;;;;;;;0.50;0.50;;;;;22.61;37.45;102304.09;4995327;28;45411;-62
2021/11/05 07:18:32;;;;;;;;;1.25;1.00;;;;;22.60;37.95;102302.41;4970367;28;45351;-63
2021/11/05 07:21:03;;;;;;;;;0.25;0.25;;;;;22.60;38.23;102297.94;4971169;28;45483;-62
2021/11/05 07:23:28;;;;;;;;;1.00;1.00;;;;;22.66;37.96;102315.09;4954612;28;46199;-64
2021/11/05 07:25:53;;;;;;;;;0.50;0.00;;;;;22.74;37.91;102315.19;4969367;28;45459;-63
2021/11/05 07:28:19;;;;;;;;;1.00;0.25;;;;;22.80;38.00;102315.59;4971152;28;45613;-64
2021/11/05 07:30:44;;;;;;;;;2.00;0.00;;;;;22.85;37.47;102321.28;4971274;28;45857;-63
2021/11/05 07:33:09;;;;;;;;;1.00;0.00;;;;;22.94;37.27;102336.31;4971811;28;46250;-63
2021/11/05 07:35:35;;;;;;;;;0.25;0.25;;;;;23.02;37.81;102335.56;4969698;28;45408;-63
2021/11/05 07:38:02;;;;;;;;;1.50;1.00;;;;;23.04;37.31;102330.09;4973615;28;46032;-63
2021/11/05 07:40:27;;;;;;;;;0.00;0.00;;;;;23.20;37.22;102345.34;4972245;28;45511;-64
2021/11/05 07:42:52;;;;;;;;;0.00;0.00;;;;;23.31;36.84;102348.75;4970198;28;45454;-64
2021/11/05 07:45:18;;;;;;;;;1.50;0.00;;;;;23.36;37.24;102341.19;4971122;28;45239;-64
2021/11/05 07:47:46;;;;;;;;;0.00;0.00;;;;;23.47;36.98;102356.84;4972004;28;45484;-64
2021/11/05 07:50:14;;;;;;;;;0.00;0.00;;;;;23.59;36.70;102365.47;4972280;28;45541;-64
2021/11/05 07:52:39;;;;;;;;;1.50;0.00;;;;;23.67;36.49;102358.53;4973180;28;46519;-64
2021/11/05 07:55:07;;;;;;;;;0.75;0.75;;;;;23.78;36.53;102362.78;4971288;28;45457;-64
2021/11/05 07:57:33;;;;;;;;;0.00;0.00;;;;;23.87;36.51;102367.16;4971036;28;45242;-63
2021/11/05 07:59:59;;;;;;;;;1.67;0.67;;;;;23.89;36.23;102359.84;4970969;28;45501;-64
2021/11/05 08:02:25;;;;;;;;;1.00;0.00;;;;;23.95;36.52;102375.19;4971114;28;47155;-64
2021/11/05 08:04:50;;;;;;;;;0.33;0.33;;;;;23.98;36.03;102378.53;4973389;28;45415;-64
2021/11/05 08:07:17;;;;;;;;;0.25;0.25;;;;;23.94;36.26;102384.16;4971047;28;45332;-64
2021/11/05 08:09:43;;;;;;;;;0.33;0.33;;;;;23.92;36.15;102379.97;4971230;28;45571;-64
2021/11/05 08:12:08;;;;;;;;;0.00;0.00;;;;;23.91;35.92;102388.97;4971215;28;45348;-63
2021/11/05 08:14:34;;;;;;;;;1.00;1.00;;;;;23.85;36.33;102393.91;4971055;28;45590;-64
2021/11/05 08:16:59;;;;;;;;;0.00;0.00;;;;;23.83;36.54;102387.06;4973463;28;45522;-64
2021/11/05 08:19:24;;;;;;;;;1.33;0.00;;;;;23.84;36.47;102399.34;4977679;27;45645;-64
2021/11/05 08:21:50;;;;;;;;;1.00;1.00;;;;;23.81;36.46;102408.47;4971280;28;45486;-64
2021/11/05 08:24:15;;;;;;;;;0.33;0.33;;;;;23.82;36.14;102414.63;4971168;28;45304;-64
2021/11/05 08:26:40;;;;;;;;;1.00;1.00;;;;;23.79;36.25;102410.44;4971247;28;45509;-64
2021/11/05 08:29:07;;;;;;;;;1.00;1.00;;;;;23.79;36.16;102420.25;4971885;28;45519;-64
2021/11/05 08:31:33;;;;;;;;;0.25;0.25;;;;;23.73;35.93;102422.53;4971779;28;46666;-64
2021/11/05 08:33:59;;;;;;;;;0.25;0.25;;;;;23.71;36.34;102427.16;4962634;28;45391;-64
2021/11/05 08:36:26;;;;;;;;;2.00;0.00;;;;;23.64;36.33;102423.47;4956199;28;45541;-64
2021/11/05 08:38:53;;;;;;;;;1.00;1.00;;;;;23.63;36.02;102427.09;4968124;28;45473;-64
2021/11/05 08:41:19;;;;;;;;;1.50;1.50;;;;;23.62;36.40;102428.94;4969179;28;47421;-64
2021/11/05 08:43:47;;;;;;;;;1.00;1.00;;;;;23.60;36.25;102432.72;4968184;28;45452;-64
2021/11/05 08:46:16;;;;;;;;;0.00;0.00;;;;;23.56;36.70;102442.81;4966805;28;45295;-64
2021/11/05 08:48:44;;;;;;;;;1.00;1.00;;;;;23.57;36.34;102451.63;4966632;28;45392;-64
2021/11/05 08:51:11;;;;;;;;;3.00;2.00;;;;;23.56;36.64;102447.28;4966359;28;45568;-64
2021/11/05 08:53:38;;;;;;;;;0.50;0.50;;;;;23.52;36.73;102447.59;4969982;28;45506;-65
2021/11/05 08:56:05;;;;;;;;;1.00;1.00;;;;;23.50;36.54;102446.91;4968977;28;45371;-66
2021/11/05 08:58:30;;;;;;;;;1.50;1.50;;;;;23.49;36.96;102449.69;4966721;28;45360;-66
2021/11/05 09:00:56;;;;;;;;;2.00;1.00;;;;;23.44;37.09;102447.50;4964524;28;46457;-65
2021/11/05 09:03:21;;;;;;;;;1.00;1.00;;;;;23.45;36.67;102454.47;4965087;28;45392;-66
2021/11/05 09:05:47;;;;;;;;;1.00;0.00;;;;;23.41;36.79;102453.09;4968655;28;45403;-65
2021/11/05 09:08:13;;;;;;;;;1.67;1.00;;;;;23.45;37.26;102458.94;4969252;28;45257;-65
2021/11/05 09:10:39;;;;;;;;;1.25;1.25;;;;;23.40;37.07;102456.72;4967407;28;46557;-65
2021/11/05 09:13:04;;;;;;;;;0.75;0.75;;;;;23.37;36.94;102452.56;4965964;28;45490;-65
2021/11/05 09:15:31;;;;;;;;;2.00;2.00;;;;;23.41;36.58;102477.00;4970466;28;45376;-65
2021/11/05 09:17:59;;;;;;;;;1.75;1.75;;;;;23.40;36.81;102475.31;4970754;28;45336;-65
2021/11/05 09:20:25;;;;;;;;;1.00;1.00;;;;;23.38;37.26;102474.66;4972967;28;46256;-65
2021/11/05 09:22:51;;;;;;;;;1.75;1.75;;;;;23.33;36.81;102472.44;4975214;28;45449;-65
2021/11/05 09:25:17;;;;;;;;;0.75;0.75;;;;;23.36;36.82;102484.59;4972853;28;45619;-65
2021/11/05 09:27:44;;;;;;;;;2.00;2.00;;;;;23.34;36.81;102481.25;4973143;28;45481;-65
2021/11/05 09:30:10;;;;;;;;;1.00;1.00;;;;;23.34;37.06;102478.59;4973080;28;46609;-65
2021/11/05 09:32:37;;;;;;;;;2.00;1.00;;;;;23.33;37.19;102479.56;4973076;28;45359;-65
2021/11/05 09:35:03;;;;;;;;;5.00;1.75;;;;;23.34;37.05;102487.38;4974873;28;45349;-65
2021/11/05 09:37:28;;;;;;;;;1.00;1.00;;;;;23.29;36.93;102482.53;4972294;28;45394;-65
2021/11/05 09:39:54;;;;;;;;;1.25;1.25;;;;;23.33;37.37;102485.72;4972542;28;46316;-65
2021/11/05 09:42:19;;;;;;;;;1.00;1.00;;;;;23.32;37.42;102493.81;4973200;28;45409;-65
2021/11/05 09:44:45;;;;;;;;;2.50;1.50;;;;;23.30;36.85;102488.66;4973275;28;45489;-65
2021/11/05 09:47:14;;;;;;;;;2.75;1.00;;;;;23.32;37.26;102493.81;4972735;28;45611;-66
2021/11/05 09:49:40;;;;;;;;;2.50;2.00;;;;;23.33;37.23;102495.50;4974795;28;46065;-66
2021/11/05 09:52:06;;;;;;;;;2.25;2.25;;;;;23.32;37.48;102493.81;4972656;28;45513;-65
2021/11/05 09:54:33;;;;;;;;;1.50;1.00;;;;;23.28;37.15;102491.50;4972630;28;45477;-65
2021/11/05 09:56:59;;;;;;;;;2.50;2.50;;;;;23.32;37.48;102505.28;4971686;28;45747;-65
2021/11/05 09:59:26;;;;;;;;;1.50;1.00;;;;;23.32;37.39;102499.13;4972777;28;46319;-65
2021/11/05 10:01:52;;;;;;;;;2.75;2.75;;;;;23.32;37.34;102512.41;4974716;28;45516;-65
2021/11/05 10:04:18;;;;;;;;;2.00;2.00;;;;;23.31;37.11;102506.28;4972908;28;45569;-65
2021/11/05 10:07:05;;;;;;;;;2.25;2.00;;;;;23.31;37.03;102510.75;4972769;28;45397;-65
2021/11/05 10:09:39;;;;;;;;;1.25;1.25;;;;;23.29;36.78;102519.69;4972333;28;46446;-65
2021/11/05 10:12:09;;;;;;;;;1.00;1.00;;;;;23.30;36.99;102515.22;4972566;28;45521;-65
2021/11/05 10:14:35;;;;;;;;;1.00;1.00;;;;;23.32;37.04;102523.03;4972906;28;45464;-65
2021/11/05 10:17:02;;;;;;;;;1.00;1.00;;;;;23.30;36.84;102525.84;4974447;28;45480;-66
2021/11/05 10:19:53;;;;;;;;;1.00;1.00;;;;;23.31;36.81;102532.84;4973035;28;46570;-65
2021/11/05 10:22:34;;;;;;;;;6.25;4.00;;;;;23.31;37.44;102538.16;4972292;28;45381;-65
2021/11/05 10:25:40;;;;;;;;;1.00;1.00;;;;;23.28;37.32;102533.97;4972221;28;45233;-65
2021/11/05 10:28:11;;;;;;;;;2.75;2.75;;;;;23.31;37.27;102537.31;4971334;28;45406;-65
2021/11/05 10:30:43;;;;;;;;;1.00;1.00;;;;;23.31;37.18;102540.81;4972102;28;45520;-65
2021/11/05 10:33:09;;;;;;;;;1.00;0.50;;;;;23.29;36.83;102543.59;4972072;28;45489;-65
2021/11/05 10:35:41;;;;;;;;;1.00;1.00;;;;;23.29;37.38;102538.28;4970552;28;45457;-65
2021/11/05 10:38:09;;;;;;;;;0.75;0.75;;;;;23.29;37.07;102537.44;4973346;28;45555;-65
2021/11/05 10:40:38;;;;;;;;;2.00;2.00;;;;;23.29;37.06;102537.44;4973129;28;47333;-65
2021/11/05 10:43:05;;;;;;;;;1.50;1.50;;;;;23.27;37.40;102536.75;4972008;28;45305;-65
2021/11/05 10:45:31;;;;;;;;;3.25;1.00;;;;;23.27;37.11;102531.44;4972329;28;47272;-66
2021/11/05 10:48:03;;;;;;;;;1.25;1.00;;;;;23.27;37.33;102540.25;4972301;28;45246;-65
2021/11/05 10:50:31;;;;;;;;;3.00;2.00;;;;;23.22;37.31;102531.06;4955198;28;46951;-65
2021/11/05 10:53:10;;;;;;;;;1.50;1.50;;;;;23.27;37.20;102545.56;4969653;28;45409;-65
2021/11/05 10:55:41;;;;;;;;;1.50;1.50;;;;;23.27;37.22;102542.91;4973331;28;45433;-66
2021/11/05 10:58:06;;;;;;;;;2.00;1.75;;;;;23.24;37.29;102535.25;4970701;28;45417;-63
2021/11/05 11:00:32;;;;;;;;;1.00;1.00;;;;;23.25;37.21;102544.88;4971553;28;45939;-65
2021/11/05 11:03:43;;;;;;;;;2.00;2.00;;;;;23.24;37.53;102545.84;4972526;28;45251;-65
2021/11/05 11:06:12;;;;;;;;;1.00;1.00;;;;;23.25;37.39;102546.69;4989236;28;45417;-65
2021/11/05 11:08:43;;;;;;;;;1.00;1.00;;;;;23.23;37.31;102549.53;4949472;28;45475;-65
2021/11/05 11:11:19;;;;;;;;;2.25;1.00;;;;;23.24;37.05;102547.66;4948633;28;46255;-65
2021/11/05 11:13:48;;;;;;;;;1.50;1.50;;;;;23.20;36.75;102547.16;4941152;28;45595;-66
2021/11/05 11:16:20;;;;;;;;;1.00;1.00;;;;;23.22;37.18;102552.31;4948533;28;45513;-65
2021/11/05 11:18:51;;;;;;;;;1.00;1.00;;;;;23.18;37.44;102538.50;4947953;28;45542;-66
2021/11/05 11:21:18;;;;;;;;;2.00;1.00;;;;;23.22;37.36;102545.19;4932452;28;45991;-65